Airfield :
LOGIN :

Register | Disclaimer

   EN    FR    IT 

 










Legend :    VFR   Marginal VFR   IFR   Intensive IFR   Very Intensive IFR
Visi :
Ceiling :
>= 8 km
>= 3000ft
5 to 8 km
1000 to 3000 ft
1500m to 5 km
500 to 1000 ft
800 to 1500m
200 to 500 ft
< 800m
< 200 ft
Symbols :   Thunderstorms  Fog  Heavy snow  Heavy precipitations  Wind > 20 kt
SIGMETs :     Misc.  Thunderstorms  Icing  Turbulence  Mountain Waves  Volcanic Ashes






- Airport Elevation : 49 ft
- IATA code : GLZ


EHGR - Gilze-Rijen Airbase

CURRENT METAR :
  • 231855Z AUTO 01007KT 290V060 9999 FEW028 OVC032 17/11 Q1021 BLU

EXPIRED METARs :
  • 231825Z AUTO 02006KT 300V060 9999 SCT030 OVC034 17/11 Q1021 BLU
  • 231755Z AUTO 02006KT 310V050 9999 SCT028 OVC037 17/11 Q1021 BLU
  • 231725Z AUTO VRB06KT 9999 BKN032 OVC036 17/11 Q1021 BLU
  • 231655Z AUTO 02007KT 300V070 9999 OVC030 17/11 Q1021 BLU
  • 231625Z AUTO 01007KT 320V060 9999 OVC031 17/11 Q1021 BLU

TAF TAF EHGR
Valid from the 23 at 09:00 until the 23 at 21:00 UTC


230834Z 2309/2321 03006KT 9999 SCT025 SCT045



MET'MAP, your aeronautical weather chart ! - Copyright ORBIFLY December 2007 - Disclaimer

ORBIFLY MET'MAP TEAM :

Programming & Development : Alexandra Zaïnal
Concept & original design : Baudouin d'Aumeries
Assistance for programming : Marc-Olivier Méhu
Technical & hardware support : Manuel Goepfert

Contact : metmap@orbifly.com




SOURCES & CREDITS :

   NOAA